Time;durP1;ratioP1;P1;durP2;ratioP2;P2;SDS_P1;SDS_P2;PMS_P1;PMS_P2;Temp;Humidity;BMP_temperature;BMP_pressure;BME280_temperature;BME280_humidity;BME280_pressure;Samples;Min_cycle;Max_cycle;Signal;HPM_P1;HPM_P2
2021/04/26 00:00:57;;;;;;;3.37;2.20;;;17.80;29.50;;;;;;5043615;28;20229;-44
2021/04/26 00:03:23;;;;;;;6.50;2.23;;;17.90;29.30;;;;;;5045926;28;20200;-45
2021/04/26 00:05:48;;;;;;;4.80;2.10;;;17.90;29.20;;;;;;5048362;28;20276;-43
2021/04/26 00:08:14;;;;;;;3.60;2.67;;;17.00;29.10;;;;;;5046370;28;20434;-44
2021/04/26 00:10:40;;;;;;;6.33;2.27;;;16.90;29.80;;;;;;5046692;28;20600;-42
2021/04/26 00:13:06;;;;;;;3.10;2.57;;;17.00;30.00;;;;;;5042773;28;20207;-44
2021/04/26 00:15:31;;;;;;;3.23;2.57;;;17.10;29.90;;;;;;5048633;28;20188;-44
2021/04/26 00:17:57;;;;;;;3.70;2.57;;;17.20;29.80;;;;;;5047464;28;20547;-43
2021/04/26 00:20:27;;;;;;;5.20;2.70;;;17.30;29.60;;;;;;5042063;28;20192;-45
2021/04/26 00:22:58;;;;;;;3.20;2.60;;;17.40;29.40;;;;;;5038862;28;20491;-44
2021/04/26 00:25:24;;;;;;;4.00;1.90;;;17.50;29.20;;;;;;5043907;28;20844;-42
2021/04/26 00:27:50;;;;;;;4.07;2.93;;;17.50;29.50;;;;;;5048431;28;20459;-45
2021/04/26 00:30:18;;;;;;;3.73;2.70;;;17.60;29.10;;;;;;5049261;28;20605;-42
2021/04/26 00:32:45;;;;;;;5.00;2.93;;;17.70;28.90;;;;;;5048855;28;20438;-43
2021/04/26 00:35:12;;;;;;;3.87;2.77;;;17.70;29.10;;;;;;5047203;28;20474;-43
2021/04/26 00:37:38;;;;;;;3.47;2.80;;;17.70;29.20;;;;;;5049850;28;21019;-42
2021/04/26 00:40:05;;;;;;;4.17;3.00;;;17.70;29.80;;;;;;5043186;28;20444;-45
2021/04/26 00:42:31;;;;;;;4.07;2.67;;;17.60;29.70;;;;;;5045100;28;20450;-43
2021/04/26 00:44:56;;;;;;;8.90;3.30;;;17.70;29.80;;;;;;5048416;28;20486;-43
2021/04/26 00:47:22;;;;;;;5.70;3.30;;;17.70;29.40;;;;;;5047527;28;20225;-46
2021/04/26 00:49:48;;;;;;;6.53;2.83;;;17.60;29.60;;;;;;5036763;28;20201;-45
2021/04/26 00:52:13;;;;;;;5.57;3.00;;;17.60;29.40;;;;;;5047426;28;20409;-43
2021/04/26 00:54:39;;;;;;;4.03;3.27;;;17.50;29.90;;;;;;5043928;28;20277;-42
2021/04/26 00:57:05;;;;;;;4.10;2.53;;;17.50;30.20;;;;;;5045489;28;20652;-42
2021/04/26 00:59:33;;;;;;;6.33;3.40;;;17.50;29.80;;;;;;5046577;28;20871;-46
2021/04/26 01:01:59;;;;;;;3.53;3.23;;;17.50;29.80;;;;;;5045205;28;20676;-43
2021/04/26 01:04:24;;;;;;;5.00;3.57;;;17.40;29.90;;;;;;5049953;28;20483;-44
2021/04/26 01:06:50;;;;;;;4.23;3.40;;;17.30;30.20;;;;;;5043936;28;20192;-42
2021/04/26 01:09:16;;;;;;;3.67;2.70;;;17.30;30.00;;;;;;5049028;28;20195;-43
2021/04/26 01:12:04;;;;;;;4.47;3.30;;;17.20;30.30;;;;;;5046258;28;20201;-44
2021/04/26 01:14:42;;;;;;;2.73;2.53;;;17.20;30.70;;;;;;5045471;28;20973;-43
2021/04/26 01:17:41;;;;;;;3.70;2.87;;;17.20;30.10;;;;;;5046217;28;20461;-42
2021/04/26 01:20:41;;;;;;;4.30;2.70;;;17.30;30.70;;;;;;5031494;28;20500;-42
2021/04/26 01:23:25;;;;;;;3.70;3.40;;;17.30;30.20;;;;;;5046116;28;20435;-42
2021/04/26 01:25:51;;;;;;;5.90;3.70;;;17.30;30.30;;;;;;5037402;28;20478;-42
2021/04/26 01:28:17;;;;;;;3.30;2.60;;;17.20;30.50;;;;;;5047937;28;20457;-44
2021/04/26 01:30:54;;;;;;;3.73;3.23;;;17.20;31.00;;;;;;5045215;28;20444;-43
2021/04/26 01:33:27;;;;;;;3.17;2.87;;;17.10;31.20;;;;;;5047893;28;20191;-44
2021/04/26 01:35:58;;;;;;;6.50;4.07;;;17.20;30.90;;;;;;5051905;28;20466;-44
2021/04/26 01:38:37;;;;;;;5.10;3.80;;;17.20;30.40;;;;;;5044930;28;20860;-44
2021/04/26 01:41:03;;;;;;;4.33;3.63;;;16.90;30.40;;;;;;5052880;28;20500;-46
2021/04/26 01:43:30;;;;;;;3.73;3.33;;;15.50;32.50;;;;;;5052466;28;20457;-48
2021/04/26 01:46:00;;;;;;;5.17;4.00;;;15.50;33.00;;;;;;5054566;28;20437;-46
2021/04/26 01:48:28;;;;;;;5.13;3.77;;;15.50;33.10;;;;;;5046644;28;20436;-44
2021/04/26 01:50:56;;;;;;;4.70;4.00;;;15.30;33.00;;;;;;5051601;28;20438;-48
2021/04/26 01:53:22;;;;;;;5.10;3.83;;;15.30;33.00;;;;;;5049462;28;20472;-45
2021/04/26 01:55:48;;;;;;;8.93;3.57;;;15.20;33.20;;;;;;5052765;28;20482;-44
2021/04/26 01:58:16;;;;;;;7.67;3.83;;;15.10;33.60;;;;;;5051241;28;20203;-44
2021/04/26 02:00:43;;;;;;;4.50;3.17;;;14.70;34.40;;;;;;5048683;28;20473;-45
2021/04/26 02:03:10;;;;;;;5.63;3.63;;;14.60;34.50;;;;;;5038013;28;21096;-45
2021/04/26 02:05:36;;;;;;;5.77;4.17;;;14.20;35.00;;;;;;5046446;28;20522;-45
2021/04/26 02:08:03;;;;;;;6.27;3.70;;;14.00;35.70;;;;;;5046183;28;20443;-43
2021/04/26 02:10:29;;;;;;;4.50;3.53;;;14.00;35.80;;;;;;5052152;28;20841;-46
2021/04/26 02:12:57;;;;;;;4.93;4.07;;;14.00;36.30;;;;;;5048238;28;20446;-43
2021/04/26 02:15:25;;;;;;;6.13;3.93;;;13.50;37.10;;;;;;5043447;28;20831;-43
2021/04/26 02:17:51;;;;;;;4.73;3.77;;;13.30;37.50;;;;;;5051187;28;20435;-45
2021/04/26 02:20:18;;;;;;;5.20;3.83;;;12.90;38.30;;;;;;5050715;28;20451;-43
2021/04/26 02:22:50;;;;;;;5.20;3.53;;;12.60;38.40;;;;;;5042474;28;20538;-47
2021/04/26 02:25:17;;;;;;;7.03;4.00;;;12.50;38.90;;;;;;5051300;28;20544;-44
2021/04/26 02:27:43;;;;;;;5.63;3.77;;;12.40;38.80;;;;;;5046741;28;20458;-45
2021/04/26 02:30:10;;;;;;;5.33;3.53;;;12.70;38.60;;;;;;5047444;28;20950;-43
2021/04/26 02:33:01;;;;;;;7.87;3.80;;;12.90;38.30;;;;;;5047864;28;20435;-46
2021/04/26 02:35:33;;;;;;;6.07;4.10;;;13.10;37.80;;;;;;5047109;28;20490;-45
2021/04/26 02:38:03;;;;;;;6.03;4.10;;;13.10;37.50;;;;;;5047509;28;20823;-44
2021/04/26 02:40:48;;;;;;;5.83;3.90;;;13.20;37.30;;;;;;5047246;28;20447;-44
2021/04/26 02:43:15;;;;;;;4.50;3.30;;;13.30;37.20;;;;;;5045731;28;20814;-43
2021/04/26 02:45:49;;;;;;;5.10;4.57;;;13.30;37.20;;;;;;5049884;28;20809;-47
2021/04/26 02:48:16;;;;;;;7.37;4.40;;;13.30;37.20;;;;;;5044214;28;20486;-47
2021/04/26 02:50:43;;;;;;;5.87;4.50;;;13.30;37.10;;;;;;5050832;28;20500;-44
2021/04/26 02:53:15;;;;;;;5.70;3.53;;;13.40;37.00;;;;;;5050172;28;20537;-47
2021/04/26 02:55:42;;;;;;;3.80;3.33;;;13.30;37.00;;;;;;5048956;28;20461;-46
2021/04/26 02:58:08;;;;;;;4.97;3.13;;;13.30;37.10;;;;;;5045126;28;20530;-44
2021/04/26 03:00:34;;;;;;;4.87;3.87;;;13.30;37.10;;;;;;5046042;28;20451;-43
2021/04/26 03:03:01;;;;;;;6.80;4.07;;;13.10;37.00;;;;;;5044986;28;20446;-45
2021/04/26 03:05:28;;;;;;;6.13;3.40;;;13.10;37.30;;;;;;5043059;28;20491;-45
2021/04/26 03:07:54;;;;;;;6.67;3.23;;;13.00;37.40;;;;;;5044832;28;20484;-44
2021/04/26 03:10:20;;;;;;;5.77;4.00;;;13.00;37.30;;;;;;5049686;28;20443;-43
2021/04/26 03:12:49;;;;;;;4.53;3.30;;;13.00;37.50;;;;;;5046930;28;20853;-43
2021/04/26 03:15:18;;;;;;;5.67;3.57;;;12.90;37.50;;;;;;5049253;28;21371;-44
2021/04/26 03:17:45;;;;;;;6.40;4.33;;;12.90;37.60;;;;;;5047007;28;20443;-43
2021/04/26 03:20:16;;;;;;;5.77;3.63;;;12.80;37.40;;;;;;5049377;28;20826;-45
2021/04/26 03:22:43;;;;;;;5.03;3.87;;;12.80;37.20;;;;;;5039167;28;20431;-45
2021/04/26 03:25:10;;;;;;;6.30;3.50;;;12.80;37.20;;;;;;5041661;28;21482;-48
2021/04/26 03:27:36;;;;;;;4.77;3.93;;;12.80;37.10;;;;;;5046615;28;20447;-44
2021/04/26 03:30:05;;;;;;;7.90;4.47;;;12.70;37.00;;;;;;5049442;28;20438;-45
2021/04/26 03:32:31;;;;;;;4.60;3.70;;;12.70;37.00;;;;;;5047829;28;20439;-44
2021/04/26 03:34:57;;;;;;;4.80;3.67;;;12.70;37.00;;;;;;5045345;28;20836;-47
2021/04/26 03:37:24;;;;;;;6.80;4.20;;;12.70;36.90;;;;;;5040731;28;20501;-44
2021/04/26 03:39:50;;;;;;;8.93;4.00;;;12.70;37.00;;;;;;5044839;28;20443;-45
2021/04/26 03:42:18;;;;;;;6.80;4.53;;;12.70;36.70;;;;;;5041244;28;20449;-43
2021/04/26 03:44:48;;;;;;;4.63;4.20;;;12.70;36.50;;;;;;5048654;28;20229;-46
2021/04/26 03:47:14;;;;;;;7.70;3.97;;;12.70;36.80;;;;;;5050041;28;20454;-45
2021/04/26 03:49:40;;;;;;;7.40;4.03;;;12.70;36.70;;;;;;5049173;28;20435;-43
2021/04/26 03:52:07;;;;;;;7.83;3.80;;;12.80;36.80;;;;;;5038177;28;20184;-45
2021/04/26 03:54:33;;;;;;;6.30;4.30;;;12.70;36.80;;;;;;5041834;28;20451;-43
2021/04/26 03:56:59;;;;;;;6.50;4.50;;;12.70;36.90;;;;;;5047446;28;20552;-45
2021/04/26 03:59:25;;;;;;;6.37;3.80;;;12.70;36.90;;;;;;5046991;28;20942;-43
2021/04/26 04:01:52;;;;;;;4.47;3.90;;;12.60;37.00;;;;;;5048473;28;20571;-43
2021/04/26 04:04:18;;;;;;;6.53;4.40;;;12.60;37.10;;;;;;5043169;28;20648;-47
2021/04/26 04:06:43;;;;;;;5.47;3.63;;;12.50;37.10;;;;;;5042180;28;20528;-46
2021/04/26 04:09:09;;;;;;;4.60;3.37;;;12.50;37.30;;;;;;5046960;28;20229;-44
2021/04/26 04:11:35;;;;;;;4.30;3.70;;;12.50;37.30;;;;;;5028042;28;20738;-44
2021/04/26 04:14:02;;;;;;;5.67;3.87;;;12.50;37.10;;;;;;5048034;28;20200;-46
2021/04/26 04:16:28;;;;;;;4.23;3.67;;;12.40;37.20;;;;;;5048910;28;20436;-46
2021/04/26 04:18:55;;;;;;;6.30;3.80;;;12.50;37.30;;;;;;5046664;28;20475;-47
2021/04/26 04:21:20;;;;;;;4.47;3.70;;;12.50;37.10;;;;;;5046254;28;20216;-46
2021/04/26 04:23:46;;;;;;;7.50;4.03;;;12.50;37.10;;;;;;5049655;28;20443;-45
2021/04/26 04:26:12;;;;;;;4.80;4.20;;;12.50;37.10;;;;;;5058983;28;20192;-43
2021/04/26 04:28:37;;;;;;;7.27;3.77;;;12.50;36.90;;;;;;5041154;28;20205;-44
2021/04/26 04:31:04;;;;;;;6.00;4.10;;;12.50;36.90;;;;;;5047150;28;20192;-45
2021/04/26 04:33:30;;;;;;;6.40;4.10;;;12.50;37.00;;;;;;5048470;28;20917;-45
2021/04/26 04:35:57;;;;;;;4.47;3.80;;;12.40;36.80;;;;;;5042237;28;20478;-45
2021/04/26 04:38:23;;;;;;;5.17;4.10;;;12.40;37.20;;;;;;5042235;28;20588;-44
2021/04/26 04:40:49;;;;;;;4.50;3.40;;;12.40;37.40;;;;;;5036886;28;20435;-43
2021/04/26 04:43:14;;;;;;;5.10;3.90;;;12.30;37.40;;;;;;5048569;28;20926;-44
2021/04/26 04:45:40;;;;;;;5.73;3.93;;;12.30;37.50;;;;;;5050729;28;20570;-46
2021/04/26 04:48:06;;;;;;;6.30;3.83;;;12.30;37.60;;;;;;5044301;28;20215;-43
2021/04/26 04:50:31;;;;;;;7.23;3.80;;;12.30;37.60;;;;;;5047008;28;20242;-42
2021/04/26 04:52:58;;;;;;;5.80;4.30;;;12.30;37.80;;;;;;5046195;28;20242;-42
2021/04/26 04:55:24;;;;;;;6.13;3.73;;;12.50;37.90;;;;;;5043565;28;20272;-42
2021/04/26 04:57:49;;;;;;;5.07;4.10;;;12.70;37.30;;;;;;5044725;28;20438;-43
2021/04/26 05:00:16;;;;;;;5.43;3.70;;;12.90;36.80;;;;;;5044192;28;20942;-43
2021/04/26 05:02:41;;;;;;;9.70;2.87;;;13.10;37.20;;;;;;5046569;28;20635;-43
2021/04/26 05:05:07;;;;;;;7.60;3.50;;;13.20;41.40;;;;;;5043913;28;20514;-45
2021/04/26 05:07:33;;;;;;;5.73;4.20;;;13.50;39.80;;;;;;5044239;28;20290;-45
2021/04/26 05:09:59;;;;;;;5.10;3.20;;;14.10;37.50;;;;;;5048772;28;20545;-43
2021/04/26 05:12:25;;;;;;;5.53;3.50;;;14.50;35.80;;;;;;5051018;28;20189;-44
2021/04/26 05:14:51;;;;;;;7.43;3.80;;;14.90;34.80;;;;;;5051948;28;20214;-45
2021/04/26 05:17:17;;;;;;;8.33;4.13;;;15.10;34.30;;;;;;5053539;28;20477;-43
2021/04/26 05:19:44;;;;;;;6.03;4.10;;;15.40;34.10;;;;;;5053904;28;20492;-43
2021/04/26 05:22:10;;;;;;;9.40;3.97;;;15.50;33.80;;;;;;5053317;28;20447;-47
2021/04/26 05:24:36;;;;;;;7.00;4.20;;;15.60;33.60;;;;;;5052158;28;20501;-45
2021/04/26 05:27:02;;;;;;;6.67;3.30;;;15.80;33.50;;;;;;5052598;28;20550;-46
2021/04/26 05:29:28;;;;;;;5.20;4.33;;;15.80;33.30;;;;;;5054096;28;20449;-43
2021/04/26 05:31:54;;;;;;;6.40;3.70;;;16.00;33.10;;;;;;5051154;28;20938;-44
2021/04/26 05:34:19;;;;;;;6.97;4.90;;;16.00;33.00;;;;;;5054276;28;20644;-44
2021/04/26 05:36:45;;;;;;;3.87;3.43;;;16.00;32.80;;;;;;5050107;28;20232;-44
2021/04/26 05:39:11;;;;;;;7.43;4.57;;;16.20;32.70;;;;;;5043288;28;20189;-43
2021/04/26 05:41:37;;;;;;;5.60;4.53;;;16.20;32.50;;;;;;5047994;28;20799;-43
2021/04/26 05:44:03;;;;;;;6.37;4.70;;;16.20;32.40;;;;;;5025202;28;20657;-44
2021/04/26 05:46:29;;;;;;;5.23;4.10;;;16.30;32.10;;;;;;5042298;28;20660;-44
2021/04/26 05:48:54;;;;;;;7.00;3.83;;;16.30;31.90;;;;;;5040441;28;20470;-45
2021/04/26 05:51:20;;;;;;;5.70;4.83;;;16.40;31.70;;;;;;5052628;28;20204;-43
2021/04/26 05:53:46;;;;;;;8.10;4.53;;;16.50;31.50;;;;;;5053890;28;20587;-44
2021/04/26 05:56:11;;;;;;;4.07;3.67;;;16.50;31.20;;;;;;5049504;28;20238;-44
2021/04/26 05:58:37;;;;;;;9.53;3.80;;;16.60;31.00;;;;;;5043244;28;20200;-43
2021/04/26 06:01:03;;;;;;;6.47;3.73;;;16.60;30.70;;;;;;5052937;28;20287;-44
2021/04/26 06:03:29;;;;;;;5.00;3.70;;;16.40;30.20;;;;;;5048997;28;20193;-45
2021/04/26 06:05:56;;;;;;;7.23;4.20;;;16.30;30.40;;;;;;5051639;28;20529;-47
2021/04/26 06:08:22;;;;;;;5.50;3.73;;;16.40;30.50;;;;;;5050232;28;20686;-43
2021/04/26 06:10:48;;;;;;;8.07;4.27;;;16.60;30.20;;;;;;5044610;28;20435;-46
2021/04/26 06:13:13;;;;;;;4.20;3.30;;;16.80;30.00;;;;;;5051895;28;20193;-42
2021/04/26 06:15:39;;;;;;;7.50;4.47;;;16.90;29.80;;;;;;5051660;28;20551;-46
2021/04/26 06:18:13;;;;;;;5.10;3.90;;;17.00;29.70;;;;;;5035820;28;20264;-48
2021/04/26 06:20:40;;;;;;;4.90;3.87;;;17.00;29.50;;;;;;5036578;28;20539;-43
2021/04/26 06:23:06;;;;;;;6.10;4.03;;;17.10;29.40;;;;;;5050639;28;20450;-44
2021/04/26 06:25:33;;;;;;;4.03;3.50;;;17.20;29.20;;;;;;5050362;28;20479;-43
2021/04/26 06:27:59;;;;;;;4.97;4.17;;;17.20;29.20;;;;;;5040330;28;20798;-45
2021/04/26 06:30:25;;;;;;;6.50;4.07;;;17.00;29.20;;;;;;5047542;28;20468;-42
2021/04/26 06:32:51;;;;;;;4.77;4.10;;;17.00;29.50;;;;;;5041816;28;20463;-43
2021/04/26 06:35:17;;;;;;;4.53;3.97;;;17.10;29.40;;;;;;5052542;28;20228;-46
2021/04/26 06:37:42;;;;;;;4.57;3.43;;;17.30;29.50;;;;;;5051080;28;20192;-45
2021/04/26 06:40:09;;;;;;;4.10;3.50;;;17.40;29.30;;;;;;5036092;28;20799;-44
2021/04/26 06:42:34;;;;;;;5.17;3.90;;;17.50;29.20;;;;;;5032449;28;20219;-43
2021/04/26 06:45:00;;;;;;;5.57;3.77;;;17.70;29.20;;;;;;5042533;28;20490;-43
2021/04/26 06:47:26;;;;;;;4.10;3.70;;;17.80;29.10;;;;;;5041983;28;20189;-42
2021/04/26 06:49:51;;;;;;;4.87;3.90;;;17.90;28.80;;;;;;5033633;28;20268;-45
2021/04/26 06:52:17;;;;;;;4.60;3.57;;;18.00;28.70;;;;;;5032553;28;20207;-44
2021/04/26 06:54:43;;;;;;;5.67;3.63;;;18.20;28.60;;;;;;5034646;28;20200;-44
2021/04/26 06:57:08;;;;;;;4.70;4.10;;;18.40;28.70;;;;;;5052474;28;20554;-44
2021/04/26 06:59:34;;;;;;;7.53;4.23;;;18.50;28.80;;;;;;5053026;28;20275;-42
2021/04/26 07:02:00;;;;;;;7.10;3.80;;;18.60;28.80;;;;;;5052253;28;20212;-46
2021/04/26 07:04:25;;;;;;;4.80;3.93;;;18.70;28.80;;;;;;5051413;28;20586;-44
2021/04/26 07:06:51;;;;;;;4.90;3.83;;;18.80;28.40;;;;;;5041587;28;20193;-43
2021/04/26 07:09:16;;;;;;;4.30;3.90;;;18.90;28.30;;;;;;5032952;28;20582;-47
2021/04/26 07:11:42;;;;;;;4.87;4.10;;;18.90;28.30;;;;;;5032014;28;20258;-46
2021/04/26 07:14:08;;;;;;;5.47;4.60;;;18.90;28.20;;;;;;5032824;28;20209;-44
2021/04/26 07:16:33;;;;;;;4.13;3.70;;;18.90;28.60;;;;;;5042579;28;20204;-47
2021/04/26 07:18:59;;;;;;;4.83;4.10;;;18.90;28.60;;;;;;5049083;28;20192;-45
2021/04/26 07:21:25;;;;;;;9.50;4.47;;;19.00;28.30;;;;;;5050101;28;20203;-47
2021/04/26 07:23:50;;;;;;;6.60;4.07;;;18.90;28.30;;;;;;5052190;28;20196;-42
2021/04/26 07:26:16;;;;;;;4.70;3.83;;;19.00;28.60;;;;;;5050468;28;20636;-47
2021/04/26 07:28:42;;;;;;;10.67;4.10;;;19.20;28.70;;;;;;5050174;28;20204;-43
2021/04/26 07:31:07;;;;;;;5.90;3.60;;;19.30;28.40;;;;;;5047971;28;20731;-45
2021/04/26 07:33:33;;;;;;;4.83;3.90;;;19.40;27.80;;;;;;5048118;28;20279;-45
2021/04/26 07:35:59;;;;;;;8.60;4.57;;;19.50;27.90;;;;;;5046578;28;20236;-43
2021/04/26 07:38:25;;;;;;;6.33;4.17;;;19.20;27.90;;;;;;5049412;28;20203;-48
2021/04/26 07:40:51;;;;;;;4.80;4.30;;;19.00;27.70;;;;;;5049473;28;20447;-45
2021/04/26 07:43:16;;;;;;;7.13;4.30;;;19.20;27.80;;;;;;5050040;28;20205;-43
2021/04/26 07:45:42;;;;;;;5.50;3.90;;;19.30;27.50;;;;;;5049623;28;20304;-44
2021/04/26 07:48:08;;;;;;;4.53;4.10;;;19.30;27.60;;;;;;5048491;28;20197;-45
2021/04/26 07:50:34;;;;;;;5.43;3.90;;;19.10;27.60;;;;;;5051528;28;20322;-46
2021/04/26 07:53:00;;;;;;;5.47;4.20;;;18.60;27.70;;;;;;5042930;28;21154;-45
2021/04/26 07:55:26;;;;;;;5.50;4.30;;;18.50;28.20;;;;;;5043768;28;20447;-44
2021/04/26 07:57:51;;;;;;;9.67;4.20;;;18.50;28.10;;;;;;5046366;28;20201;-47
2021/04/26 08:00:17;;;;;;;3.90;3.60;;;18.60;28.50;;;;;;5048812;28;20192;-43
2021/04/26 08:02:44;;;;;;;6.03;4.17;;;18.70;28.60;;;;;;5044350;28;20200;-44
2021/04/26 08:05:10;;;;;;;4.80;4.10;;;18.80;28.60;;;;;;5050407;28;20569;-45
2021/04/26 08:07:36;;;;;;;4.70;4.00;;;19.00;28.20;;;;;;5046587;28;20482;-44
2021/04/26 08:10:03;;;;;;;4.90;3.40;;;19.00;28.10;;;;;;5045006;28;20840;-44
2021/04/26 08:12:28;;;;;;;4.43;4.03;;;19.40;29.00;;;;;;5045102;28;20236;-47
2021/04/26 08:14:54;;;;;;;5.43;4.30;;;19.40;27.70;;;;;;5049040;28;20462;-47
2021/04/26 08:17:20;;;;;;;10.80;4.57;;;19.40;27.60;;;;;;5043345;28;20803;-43
2021/04/26 08:19:45;;;;;;;6.80;5.17;;;19.50;27.40;;;;;;5049654;28;20215;-43
2021/04/26 08:22:11;;;;;;;6.47;4.13;;;19.70;27.50;;;;;;5046423;28;20565;-43
2021/04/26 08:24:37;;;;;;;5.07;4.57;;;19.80;28.10;;;;;;5047140;28;20919;-45
2021/04/26 08:27:03;;;;;;;4.73;4.10;;;19.90;27.70;;;;;;5044858;28;20200;-43
2021/04/26 08:29:28;;;;;;;8.73;4.60;;;19.90;27.80;;;;;;5049779;28;20560;-43
2021/04/26 08:31:54;;;;;;;6.77;4.30;;;19.80;27.30;;;;;;5046862;28;20244;-43
2021/04/26 08:34:20;;;;;;;6.93;4.60;;;19.90;27.60;;;;;;5044017;28;20470;-45
2021/04/26 08:36:45;;;;;;;5.73;4.07;;;20.00;27.50;;;;;;5026795;28;20228;-43
2021/04/26 08:39:11;;;;;;;10.27;4.60;;;20.00;27.30;;;;;;5026061;28;20955;-43
2021/04/26 08:41:40;;;;;;;5.37;4.80;;;19.90;27.70;;;;;;5031597;28;20189;-45
2021/04/26 08:44:06;;;;;;;10.03;5.23;;;20.10;27.60;;;;;;5032365;28;20236;-44
2021/04/26 08:46:32;;;;;;;5.87;4.07;;;20.30;27.60;;;;;;5035590;28;20432;-45
2021/04/26 08:48:58;;;;;;;7.20;4.33;;;20.40;27.00;;;;;;5036744;28;20201;-48
2021/04/26 08:51:24;;;;;;;6.70;4.43;;;20.30;26.90;;;;;;5035427;28;20193;-45
2021/04/26 08:53:49;;;;;;;8.53;4.97;;;20.50;27.30;;;;;;5035022;28;20443;-44
2021/04/26 08:56:16;;;;;;;4.40;4.00;;;20.80;27.70;;;;;;5033660;28;20633;-44
2021/04/26 08:58:42;;;;;;;4.50;4.00;;;21.00;27.60;;;;;;5032150;28;20284;-43
2021/04/26 09:01:07;;;;;;;6.37;5.30;;;21.20;28.00;;;;;;5028172;28;20884;-44
2021/04/26 09:03:37;;;;;;;6.10;4.40;;;21.50;27.50;;;;;;5032255;28;20276;-44
2021/04/26 09:06:05;;;;;;;6.30;4.60;;;21.80;27.00;;;;;;5034090;28;20225;-47
2021/04/26 09:08:31;;;;;;;4.73;3.90;;;21.90;27.50;;;;;;5033596;28;20429;-44
2021/04/26 09:11:02;;;;;;;5.30;4.50;;;22.10;26.80;;;;;;5033672;28;20847;-44
2021/04/26 09:13:31;;;;;;;5.00;4.60;;;21.70;26.40;;;;;;5030794;28;20561;-44
2021/04/26 09:15:59;;;;;;;4.70;4.30;;;21.70;26.60;;;;;;5034048;28;20431;-43
2021/04/26 09:18:57;;;;;;;5.60;4.60;;;21.90;26.90;;;;;;5033923;28;20447;-45
2021/04/26 09:21:44;;;;;;;4.40;4.00;;;22.20;26.80;;;;;;5035057;28;20436;-45
2021/04/26 09:24:25;;;;;;;7.40;4.70;;;22.40;26.30;;;;;;5023146;28;20471;-44
2021/04/26 09:27:12;;;;;;;8.70;4.50;;;22.50;27.70;;;;;;5023511;28;20482;-43
2021/04/26 09:29:40;;;;;;;6.90;4.40;;;22.80;27.10;;;;;;5022279;28;20471;-45
2021/04/26 09:32:11;;;;;;;7.03;4.50;;;23.00;26.60;;;;;;5034813;28;20939;-46
2021/04/26 09:34:45;;;;;;;9.90;4.33;;;23.10;26.50;;;;;;5036974;28;21055;-47
2021/04/26 09:37:18;;;;;;;4.27;3.90;;;23.10;26.70;;;;;;5050934;28;20496;-43
2021/04/26 09:40:00;;;;;;;3.93;3.63;;;23.30;26.10;;;;;;5050462;28;20454;-45
2021/04/26 09:42:46;;;;;;;4.93;4.50;;;23.60;25.40;;;;;;5050889;28;20446;-44
2021/04/26 09:45:26;;;;;;;5.57;4.57;;;23.70;24.50;;;;;;5055856;28;20489;-43
2021/04/26 09:48:10;;;;;;;7.93;5.13;;;23.60;24.40;;;;;;5051419;28;20472;-43
2021/04/26 09:50:58;;;;;;;5.43;4.83;;;23.20;24.30;;;;;;5049296;28;20766;-45
2021/04/26 09:53:29;;;;;;;5.40;4.23;;;23.30;25.00;;;;;;5051758;28;20520;-45
2021/04/26 09:55:56;;;;;;;5.90;4.20;;;23.10;24.60;;;;;;5052592;28;20427;-44
2021/04/26 09:58:23;;;;;;;4.33;3.73;;;22.80;25.20;;;;;;5048256;28;20935;-45
2021/04/26 10:00:49;;;;;;;5.67;4.40;;;23.00;25.40;;;;;;5041845;28;20469;-43
2021/04/26 10:03:16;;;;;;;5.70;5.10;;;22.90;24.70;;;;;;5049749;28;20859;-43
2021/04/26 10:05:43;;;;;;;7.93;4.40;;;23.10;25.10;;;;;;5050763;28;20226;-43
2021/04/26 10:08:11;;;;;;;4.10;3.70;;;23.50;25.80;;;;;;5048148;28;20446;-43
2021/04/26 10:10:42;;;;;;;3.87;3.40;;;23.60;24.00;;;;;;5052384;28;20522;-43
2021/04/26 10:13:08;;;;;;;4.27;3.87;;;23.40;24.10;;;;;;5052474;28;20442;-47
2021/04/26 10:15:34;;;;;;;5.83;4.13;;;23.10;23.30;;;;;;5052276;28;20789;-44
2021/04/26 10:18:05;;;;;;;4.87;4.00;;;23.20;24.10;;;;;;5050926;28;20276;-44
2021/04/26 10:20:43;;;;;;;3.93;3.47;;;23.50;23.60;;;;;;5021130;28;20529;-45
2021/04/26 10:23:34;;;;;;;4.67;4.20;;;23.80;23.50;;;;;;5051676;28;20430;-45
2021/04/26 10:26:00;;;;;;;4.10;3.73;;;23.80;23.10;;;;;;5040794;28;20978;-43
2021/04/26 10:28:36;;;;;;;5.30;4.23;;;23.50;23.70;;;;;;5052608;28;20501;-45
2021/04/26 10:31:14;;;;;;;5.30;4.67;;;23.80;23.50;;;;;;5051566;28;20283;-45
2021/04/26 10:34:00;;;;;;;5.93;4.07;;;24.10;23.50;;;;;;5047833;28;20852;-45
2021/04/26 10:36:42;;;;;;;4.83;4.10;;;24.50;23.40;;;;;;5046899;28;20475;-44
2021/04/26 10:39:13;;;;;;;5.13;3.90;;;24.70;23.10;;;;;;5052145;28;20447;-43
2021/04/26 10:41:52;;;;;;;6.57;4.40;;;24.20;22.90;;;;;;5044529;28;20447;-45
2021/04/26 10:44:36;;;;;;;6.60;4.20;;;23.80;24.90;;;;;;5050098;28;20482;-44
2021/04/26 10:47:16;;;;;;;6.80;3.83;;;24.30;26.10;;;;;;5044140;28;20867;-45
2021/04/26 10:49:44;;;;;;;5.07;3.30;;;24.70;23.80;;;;;;5050444;28;20808;-47
2021/04/26 10:52:28;;;;;;;6.90;4.73;;;25.00;23.40;;;;;;5039868;28;20431;-44
2021/04/26 10:54:55;;;;;;;5.90;4.50;;;25.10;24.20;;;;;;5037274;28;20791;-49
2021/04/26 10:57:58;;;;;;;4.67;4.27;;;25.30;24.40;;;;;;5048175;28;20435;-49
2021/04/26 11:00:27;;;;;;;6.80;5.00;;;25.50;24.50;;;;;;5044779;28;20442;-44
2021/04/26 11:02:59;;;;;;;4.70;4.30;;;25.70;24.30;;;;;;5034913;28;20805;-46
2021/04/26 11:05:31;;;;;;;5.00;4.30;;;25.80;23.40;;;;;;5051532;28;20970;-44
2021/04/26 11:10:54;;;;;;;9.30;4.20;;;25.80;23.40;;;;;;5050354;28;20495;-48
2021/04/26 11:13:32;;;;;;;5.03;4.40;;;26.20;23.40;;;;;;5051601;28;20450;-47
2021/04/26 11:16:04;;;;;;;4.63;3.70;;;26.40;22.80;;;;;;5045148;28;21026;-46
2021/04/26 11:18:32;;;;;;;6.87;4.63;;;26.50;23.90;;;;;;5045749;28;20919;-45
2021/04/26 11:20:58;;;;;;;5.73;4.37;;;26.60;23.70;;;;;;5042939;28;20423;-44
2021/04/26 11:23:49;;;;;;;9.30;4.00;;;26.90;23.40;;;;;;5050714;28;21175;-45
2021/04/26 11:26:19;;;;;;;5.63;4.00;;;27.10;21.70;;;;;;5042074;28;20604;-45
2021/04/26 11:29:05;;;;;;;4.97;4.10;;;27.00;21.50;;;;;;5045538;28;20443;-46
2021/04/26 11:32:06;;;;;;;4.80;4.07;;;25.60;21.50;;;;;;5047880;28;20550;-47
2021/04/26 11:34:46;;;;;;;5.73;3.60;;;25.00;22.40;;;;;;5050918;28;20530;-47
2021/04/26 11:37:13;;;;;;;4.83;4.13;;;25.00;21.20;;;;;;5045533;28;20443;-46
2021/04/26 11:39:42;;;;;;;5.40;3.60;;;24.80;21.60;;;;;;5046886;28;20438;-44
2021/04/26 11:42:20;;;;;;;4.10;3.70;;;24.70;21.80;;;;;;5041371;28;20450;-47
2021/04/26 11:44:47;;;;;;;4.83;3.80;;;24.60;21.80;;;;;;5046762;28;20607;-48
2021/04/26 11:47:14;;;;;;;3.93;3.50;;;25.10;21.80;;;;;;5043053;28;20427;-47
2021/04/26 11:49:42;;;;;;;5.17;4.37;;;25.40;21.60;;;;;;5047856;28;20460;-48
2021/04/26 11:52:15;;;;;;;4.40;3.83;;;25.90;23.10;;;;;;5047515;28;20443;-45
2021/04/26 11:54:52;;;;;;;4.50;3.60;;;25.90;22.70;;;;;;5042622;28;20497;-43
2021/04/26 11:57:23;;;;;;;4.63;3.33;;;26.00;21.80;;;;;;5046916;28;20438;-44
2021/04/26 12:00:01;;;;;;;4.60;4.10;;;26.20;21.60;;;;;;5045027;28;21525;-48
2021/04/26 12:02:39;;;;;;;4.10;3.33;;;26.10;21.40;;;;;;5042424;28;20933;-45
2021/04/26 12:05:06;;;;;;;6.90;4.00;;;25.50;21.90;;;;;;5044073;28;20486;-43
2021/04/26 12:07:32;;;;;;;6.23;4.10;;;25.90;21.90;;;;;;5040435;28;20451;-45
2021/04/26 12:10:00;;;;;;;5.03;3.97;;;26.20;21.00;;;;;;5043684;28;20457;-45
2021/04/26 12:12:28;;;;;;;4.50;4.10;;;26.20;20.90;;;;;;5040304;28;20243;-43
2021/04/26 12:14:58;;;;;;;5.23;3.90;;;26.20;21.30;;;;;;5039907;28;20507;-43
2021/04/26 12:17:42;;;;;;;5.33;3.60;;;26.20;22.30;;;;;;5041933;28;20532;-44
2021/04/26 12:20:18;;;;;;;4.20;3.80;;;26.40;21.10;;;;;;5050273;28;20439;-44
2021/04/26 12:22:46;;;;;;;4.73;3.87;;;26.20;21.00;;;;;;5047960;28;20441;-44
2021/04/26 12:25:13;;;;;;;4.70;4.27;;;25.90;21.00;;;;;;5043833;28;20486;-46
2021/04/26 12:27:39;;;;;;;5.17;4.10;;;25.80;20.30;;;;;;5042834;28;20538;-43
2021/04/26 12:30:23;;;;;;;4.70;4.30;;;25.00;21.00;;;;;;5044167;28;20854;-46
2021/04/26 12:32:50;;;;;;;5.17;3.90;;;25.30;21.00;;;;;;5044244;28;20479;-44
2021/04/26 12:35:26;;;;;;;6.00;4.37;;;25.40;20.80;;;;;;5044704;28;20467;-43
2021/04/26 12:37:51;;;;;;;4.97;3.70;;;25.70;21.00;;;;;;5045314;28;21011;-44
2021/04/26 12:40:23;;;;;;;4.83;3.53;;;25.30;20.60;;;;;;5049902;28;20439;-44
2021/04/26 12:42:53;;;;;;;5.40;3.47;;;24.20;21.50;;;;;;5046219;28;20203;-44
2021/04/26 12:45:23;;;;;;;7.17;4.17;;;24.50;21.80;;;;;;5046967;28;20952;-48
2021/04/26 12:47:55;;;;;;;3.57;3.27;;;24.80;20.70;;;;;;5047773;28;20451;-48
2021/04/26 12:50:44;;;;;;;4.60;4.20;;;24.50;20.40;;;;;;5046904;28;20997;-45
2021/04/26 12:53:14;;;;;;;5.43;3.50;;;24.90;21.40;;;;;;5041866;28;20943;-44
2021/04/26 12:55:55;;;;;;;5.90;4.00;;;25.10;21.20;;;;;;5040989;28;20447;-46
2021/04/26 12:58:35;;;;;;;4.00;3.70;;;25.50;20.70;;;;;;5030983;28;20451;-45